Time;durP1;ratioP1;P1;durP2;ratioP2;P2;SDS_P1;SDS_P2;PMS_P1;PMS_P2;Temp;Humidity;BMP_temperature;BMP_pressure;BME280_temperature;BME280_humidity;BME280_pressure;Samples;Min_cycle;Max_cycle;Signal;HPM_P1;HPM_P2
2023/03/01 00:02:05;;;;;;;;;;;4.30;63.00;;;2.93;50.56;101987.19;5009325;28;20295;-78
2023/03/01 00:04:38;;;;;;;;;;;4.30;62.90;;;2.91;50.71;101984.66;5009197;28;19929;-78
2023/03/01 00:07:09;;;;;;;;;;;4.30;62.80;;;2.89;50.68;101989.25;5007875;28;19929;-78
2023/03/01 00:09:42;;;;;;;;;;;4.30;62.70;;;2.88;50.50;101992.84;5001847;28;19949;-78
2023/03/01 00:12:12;;;;;;;;;;;4.20;62.70;;;2.87;50.86;101993.78;4987152;28;19926;-77
2023/03/01 00:14:40;;;;;;;;;;;4.30;62.70;;;2.87;50.62;101995.59;5006227;28;20028;-78
2023/03/01 00:17:11;;;;;;;;;;;4.30;62.60;;;2.86;50.53;101986.00;5004679;28;19925;-78
2023/03/01 00:19:40;;;;;;;;;;;4.30;62.60;;;2.85;50.51;101990.44;5002516;28;19979;-78
2023/03/01 00:22:21;;;;;;;;;;;4.20;62.40;;;2.80;50.74;101979.44;4991430;28;19933;-78
2023/03/01 00:24:55;;;;;;;;;;;4.20;62.70;;;2.82;50.77;101985.41;4988825;28;20032;-77
2023/03/01 00:27:24;;;;;;;;;;;4.20;62.90;;;2.78;50.60;101976.94;4993275;28;20019;-78
2023/03/01 00:29:53;;;;;;;;;;;4.20;62.90;;;2.78;50.66;101979.56;5001757;28;19937;-78
2023/03/01 00:32:20;;;;;;;;;;;4.20;62.90;;;2.75;50.79;101971.91;4973156;28;19930;-77
2023/03/01 00:34:55;;;;;;;;;;;4.10;62.90;;;2.73;50.99;101971.19;5002041;28;19929;-77
2023/03/01 00:37:22;;;;;;;;;;;4.10;63.20;;;2.75;51.01;101973.72;4988076;28;19969;-78
2023/03/01 00:39:49;;;;;;;;;;;4.10;63.20;;;2.77;50.69;101966.50;4990337;28;19980;-78
2023/03/01 00:42:16;;;;;;;;;;;4.10;63.00;;;2.71;50.80;101970.47;4980381;28;19947;-78
2023/03/01 00:44:45;;;;;;;;;;;4.10;63.00;;;2.67;51.03;101971.66;4990486;28;19929;-78
2023/03/01 00:47:12;;;;;;;;;;;4.10;63.00;;;2.69;50.89;101966.31;4991149;28;19934;-78
2023/03/01 00:49:38;;;;;;;;;;;4.10;63.00;;;2.67;50.97;101965.56;4991992;28;19935;-78
2023/03/01 00:52:05;;;;;;;;;;;4.10;62.90;;;2.67;50.80;101957.66;4990228;28;19929;-78
2023/03/01 00:54:32;;;;;;;;;;;4.10;62.90;;;2.67;50.85;101955.88;5008968;28;19948;-77
2023/03/01 00:56:59;;;;;;;;;;;4.10;63.10;;;2.66;50.92;101948.94;5009149;28;19948;-78
2023/03/01 00:59:26;;;;;;;;;;;4.10;63.00;;;2.67;50.99;101944.50;4979621;28;19930;-78
2023/03/01 01:01:54;;;;;;;;;;;4.00;62.90;;;2.65;51.05;101954.34;5009599;28;19936;-78
2023/03/01 01:04:23;;;;;;;;;;;4.00;63.20;;;2.61;51.26;101945.84;5006382;28;19933;-77
2023/03/01 01:06:49;;;;;;;;;;;4.00;63.20;;;2.64;50.96;101948.22;5002691;28;19932;-78
2023/03/01 01:09:18;;;;;;;;;;;4.00;63.10;;;2.58;51.26;101949.53;5008600;28;19936;-78
2023/03/01 01:11:46;;;;;;;;;;;4.00;63.30;;;2.54;51.29;101948.13;4990499;28;19925;-78
2023/03/01 01:14:14;;;;;;;;;;;3.90;63.40;;;2.52;51.49;101938.66;4990943;28;19929;-78
2023/03/01 01:16:41;;;;;;;;;;;3.90;63.50;;;2.52;51.39;101931.59;5007964;28;20615;-78
2023/03/01 01:19:10;;;;;;;;;;;3.90;63.40;;;2.51;51.18;101937.00;5008069;28;19933;-77
2023/03/01 01:21:37;;;;;;;;;;;3.90;63.30;;;2.55;51.25;101925.25;5007615;28;20031;-78
2023/03/01 01:24:04;;;;;;;;;;;3.90;63.40;;;2.57;50.81;101928.59;4991679;28;20409;-78
2023/03/01 01:26:33;;;;;;;;;;;3.90;63.10;;;2.54;50.99;101923.59;5007810;28;19929;-77
2023/03/01 01:29:05;;;;;;;;;;;3.90;63.00;;;2.50;50.89;101912.47;4990483;28;20388;-77
2023/03/01 01:31:33;;;;;;;;;;;3.90;63.00;;;2.48;50.98;101909.09;4990062;28;19929;-78
2023/03/01 01:34:01;;;;;;;;;;;3.90;63.00;;;2.47;51.07;101917.97;4991477;28;19925;-77
2023/03/01 01:36:29;;;;;;;;;;;3.90;63.10;;;2.49;50.75;101908.16;4990091;28;20016;-78
2023/03/01 01:38:57;;;;;;;;;;;3.90;63.00;;;2.48;50.83;101903.84;4990791;28;20648;-78
2023/03/01 01:41:25;;;;;;;;;;;3.90;63.00;;;2.48;50.67;101903.00;4985246;28;19956;-78
2023/03/01 01:44:17;;;;;;;;;;;3.90;63.00;;;2.46;50.84;101899.66;4991604;28;19935;-78
2023/03/01 01:46:46;;;;;;;;;;;3.90;63.00;;;2.42;51.02;101911.41;4986203;28;19930;-78
2023/03/01 01:49:20;;;;;;;;;;;3.80;63.00;;;2.43;50.89;101906.00;5006201;28;19930;-77
2023/03/01 01:51:50;;;;;;;;;;;3.80;63.00;;;2.45;50.89;101892.72;4987715;28;19925;-78
2023/03/01 01:54:21;;;;;;;;;;;3.80;62.80;;;2.46;50.67;101897.03;5008838;28;19929;-77
2023/03/01 01:56:51;;;;;;;;;;;3.80;62.80;;;2.41;50.89;101900.03;4993088;28;20634;-78
2023/03/01 01:59:18;;;;;;;;;;;3.80;62.80;;;2.37;50.87;101905.66;4990217;28;20545;-78
2023/03/01 02:01:45;;;;;;;;;;;3.80;62.90;;;2.34;51.01;101906.72;4988335;28;19930;-77
2023/03/01 02:04:12;;;;;;;;;;;3.70;63.00;;;2.36;51.18;101914.53;4987286;28;19964;-78
2023/03/01 02:06:43;;;;;;;;;;;3.70;63.00;;;2.33;51.13;101915.59;4985566;28;20487;-78
2023/03/01 02:09:16;;;;;;;;;;;3.70;63.00;;;2.28;50.90;101915.94;5000292;28;20020;-78
2023/03/01 02:11:44;;;;;;;;;;;3.70;63.10;;;2.31;51.01;101907.00;4981148;28;19933;-77
2023/03/01 02:14:11;;;;;;;;;;;3.70;63.10;;;2.27;51.12;101901.13;5005190;28;19940;-77
2023/03/01 02:16:38;;;;;;;;;;;3.70;63.10;;;2.25;51.32;101894.31;4999477;28;20386;-78
2023/03/01 02:19:05;;;;;;;;;;;3.70;63.40;;;2.26;51.34;101903.88;5003358;28;19930;-78
2023/03/01 02:21:43;;;;;;;;;;;3.70;63.40;;;2.24;51.16;101901.34;5007425;28;20019;-77
2023/03/01 02:24:29;;;;;;;;;;;3.70;63.40;;;2.24;51.35;101887.38;4990651;28;19929;-78
2023/03/01 02:26:57;;;;;;;;;;;3.60;63.30;;;2.25;50.75;101891.69;4980002;28;19925;-78
2023/03/01 02:29:27;;;;;;;;;;;3.60;63.20;;;2.22;51.08;101886.66;5006837;28;19932;-78
2023/03/01 02:31:56;;;;;;;;;;;3.60;63.10;;;2.18;51.08;101888.69;5008688;28;19929;-78
2023/03/01 02:34:25;;;;;;;;;;;3.60;63.20;;;2.21;51.15;101891.09;5008345;28;19930;-78
2023/03/01 02:36:57;;;;;;;;;;;3.70;63.40;;;2.20;50.93;101888.59;4994004;28;19957;-78
2023/03/01 02:39:27;;;;;;;;;;;3.60;63.20;;;2.17;50.98;101887.03;4980964;28;19936;-78
2023/03/01 02:41:55;;;;;;;;;;;3.60;63.20;;;2.15;50.97;101890.72;5010174;28;19926;-78
2023/03/01 02:44:22;;;;;;;;;;;3.60;63.20;;;2.13;51.20;101888.22;4994777;28;19930;-78
2023/03/01 02:46:54;;;;;;;;;;;3.50;63.20;;;2.15;50.74;101885.47;4990588;28;20374;-78
2023/03/01 02:49:24;;;;;;;;;;;3.50;63.20;;;2.12;50.96;101888.34;5009700;28;20310;-78
2023/03/01 02:52:08;;;;;;;;;;;3.50;63.20;;;2.12;51.23;101877.81;5010973;28;19929;-78
2023/03/01 02:54:40;;;;;;;;;;;3.50;63.40;;;2.12;50.85;101880.47;5011276;28;19948;-78
2023/03/01 02:57:08;;;;;;;;;;;3.50;63.20;;;2.06;50.96;101885.25;5008875;28;19925;-78
2023/03/01 02:59:39;;;;;;;;;;;3.50;63.30;;;1.99;51.15;101884.03;4994056;28;19929;-78
2023/03/01 03:02:19;;;;;;;;;;;3.40;63.20;;;1.98;51.34;101894.69;4986637;28;19976;-77
2023/03/01 03:04:47;;;;;;;;;;;3.50;63.40;;;1.97;51.31;101893.03;4984949;28;19955;-78
2023/03/01 03:07:14;;;;;;;;;;;3.40;63.40;;;1.93;51.37;101892.41;4986261;28;19933;-77
2023/03/01 03:09:41;;;;;;;;;;;3.40;63.50;;;1.98;51.20;101884.16;4994243;28;20388;-78
2023/03/01 03:12:08;;;;;;;;;;;3.40;63.50;;;1.99;51.08;101886.66;5009433;28;20298;-78
2023/03/01 03:14:35;;;;;;;;;;;3.30;63.40;;;1.93;51.27;101883.69;4991784;28;19930;-78
2023/03/01 03:17:06;;;;;;;;;;;3.40;63.40;;;1.93;51.35;101883.69;4987921;28;20305;-78
2023/03/01 03:19:34;;;;;;;;;;;3.30;63.40;;;1.89;51.29;101877.81;4984586;28;20037;-77
2023/03/01 03:22:01;;;;;;;;;;;3.30;63.60;;;1.88;51.37;101884.06;5007203;28;19930;-78
2023/03/01 03:24:37;;;;;;;;;;;3.30;63.50;;;1.90;51.35;101886.56;5010675;28;19940;-78
2023/03/01 03:27:04;;;;;;;;;;;3.30;63.50;;;1.86;51.81;101883.34;4982240;28;19930;-78
2023/03/01 03:29:31;;;;;;;;;;;3.30;63.50;;;1.85;51.45;101883.44;4992618;28;19930;-78
2023/03/01 03:31:59;;;;;;;;;;;3.30;63.50;;;1.83;51.54;101880.09;5006073;28;19929;-78
2023/03/01 03:34:26;;;;;;;;;;;3.30;63.60;;;1.82;51.54;101871.38;5011171;28;19929;-78
2023/03/01 03:36:59;;;;;;;;;;;3.30;63.70;;;1.82;51.67;101876.66;5004296;28;19929;-77
2023/03/01 03:39:26;;;;;;;;;;;3.20;63.80;;;1.85;51.34;101871.13;5010531;28;20397;-77
2023/03/01 03:41:53;;;;;;;;;;;3.30;63.70;;;1.82;51.39;101868.75;5009534;28;19930;-77
2023/03/01 03:44:21;;;;;;;;;;;3.20;63.50;;;1.79;51.46;101869.81;4992861;28;20461;-78
2023/03/01 03:46:48;;;;;;;;;;;3.20;63.60;;;1.80;51.26;101873.28;4989955;23;19965;-84
2023/03/01 03:49:15;;;;;;;;;;;3.20;63.60;;;1.77;51.45;101860.38;4951469;28;19926;-83
2023/03/01 03:51:42;;;;;;;;;;;3.20;63.60;;;1.75;51.68;101864.91;4970709;28;20014;-84
2023/03/01 03:54:10;;;;;;;;;;;3.20;63.80;;;1.71;51.56;101861.72;4965425;28;19930;-83
2023/03/01 03:56:37;;;;;;;;;;;3.20;63.80;;;1.74;51.47;101850.09;4964572;28;19938;-83
2023/03/01 03:59:05;;;;;;;;;;;3.10;63.80;;;1.75;51.58;101849.13;4970983;28;19930;-84
2023/03/01 04:01:32;;;;;;;;;;;3.10;63.80;;;1.72;51.58;101841.50;4963018;28;19930;-83
2023/03/01 04:04:03;;;;;;;;;;;3.10;63.80;;;1.69;51.53;101839.94;4971344;28;19937;-83
2023/03/01 04:06:31;;;;;;;;;;;3.10;63.80;;;1.70;51.81;101838.13;4952451;28;19935;-84
2023/03/01 04:09:00;;;;;;;;;;;3.10;64.00;;;1.72;51.56;101841.50;4971615;28;19930;-83
2023/03/01 04:11:29;;;;;;;;;;;3.10;64.00;;;1.70;51.66;101835.50;4971270;28;19930;-84
2023/03/01 04:13:58;;;;;;;;;;;3.10;64.00;;;1.70;51.65;101832.88;4969274;28;20658;-84
2023/03/01 04:16:26;;;;;;;;;;;3.20;64.00;;;1.68;51.58;101834.81;4968360;28;19930;-84
2023/03/01 04:18:54;;;;;;;;;;;3.10;64.00;;;1.63;51.68;101835.16;4960447;28;19931;-83
2023/03/01 04:21:21;;;;;;;;;;;3.10;64.00;;;1.65;51.57;101835.88;4969529;28;20005;-83
2023/03/01 04:23:52;;;;;;;;;;;3.00;63.90;;;1.67;51.67;101833.97;4971733;28;20390;-83
2023/03/01 04:26:20;;;;;;;;;;;3.00;63.80;;;1.62;51.65;101838.75;4968851;28;20024;-83
2023/03/01 04:28:50;;;;;;;;;;;3.10;63.90;;;1.62;51.54;101836.13;4971477;28;20354;-83
2023/03/01 04:31:20;;;;;;;;;;;3.00;63.90;;;1.64;51.33;101836.81;4966080;28;20027;-84
2023/03/01 04:33:49;;;;;;;;;;;3.00;63.80;;;1.62;51.53;101840.53;4971594;28;19933;-84
2023/03/01 04:36:17;;;;;;;;;;;3.00;63.80;;;1.62;51.48;101840.53;4970211;28;19926;-84
2023/03/01 04:38:47;;;;;;;;;;;3.00;63.80;;;1.62;51.54;101838.75;4970612;28;19957;-83
2023/03/01 04:41:15;;;;;;;;;;;3.00;63.80;;;1.58;51.52;101845.19;4969874;28;19934;-83
2023/03/01 04:43:42;;;;;;;;;;;3.00;63.80;;;1.59;51.50;101840.78;4970498;28;19937;-84
2023/03/01 04:46:13;;;;;;;;;;;3.00;64.00;;;1.60;51.39;101847.69;4969989;28;20013;-83
2023/03/01 04:48:41;;;;;;;;;;;3.00;63.80;;;1.58;51.33;101839.09;4963652;28;19977;-83
2023/03/01 04:51:09;;;;;;;;;;;3.00;63.90;;;1.54;51.50;101841.97;4969500;28;19930;-83
2023/03/01 04:53:37;;;;;;;;;;;3.00;64.00;;;1.55;51.46;101829.66;4961678;28;19926;-83
2023/03/01 04:56:04;;;;;;;;;;;2.90;63.90;;;1.51;51.51;101834.34;4968308;28;19930;-83
2023/03/01 04:58:31;;;;;;;;;;;2.90;64.00;;;1.52;51.41;101827.28;4968770;28;19930;-84
2023/03/01 05:00:58;;;;;;;;;;;2.90;64.00;;;1.53;51.51;101837.66;4970320;28;19934;-84
2023/03/01 05:03:27;;;;;;;;;;;2.90;64.00;;;1.50;51.55;101837.88;4970139;28;19926;-85
2023/03/01 05:05:54;;;;;;;;;;;2.90;64.00;;;1.47;51.65;101830.25;4964882;28;19937;-82
2023/03/01 05:08:21;;;;;;;;;;;2.90;64.20;;;1.47;51.66;101821.53;4945552;28;20787;-82
2023/03/01 05:10:51;;;;;;;;;;;2.90;64.20;;;1.45;52.12;101828.69;4969782;28;19930;-87
2023/03/01 05:13:21;;;;;;;;;;;2.90;64.20;;;1.43;51.52;101820.94;4950027;28;19926;-87
2023/03/01 05:15:49;;;;;;;;;;;2.90;64.20;;;1.42;51.77;101819.28;4965031;28;19962;-86
2023/03/01 05:18:16;;;;;;;;;;;2.80;64.10;;;1.42;51.52;101813.19;4969787;28;19976;-86
2023/03/01 05:20:45;;;;;;;;;;;2.80;64.00;;;1.41;51.43;101817.56;4969340;28;19937;-86
2023/03/01 05:23:12;;;;;;;;;;;2.80;63.90;;;1.37;51.73;101820.59;4970371;28;19930;-86
2023/03/01 05:25:41;;;;;;;;;;;2.80;63.90;;;1.40;51.71;101815.06;4967246;28;19952;-86
2023/03/01 05:28:11;;;;;;;;;;;2.80;63.90;;;1.37;51.73;101812.69;4966658;28;19930;-86
2023/03/01 05:30:39;;;;;;;;;;;2.80;64.00;;;1.37;51.60;101810.06;4970507;28;19930;-85
2023/03/01 05:33:12;;;;;;;;;;;2.80;64.00;;;1.40;51.55;101808.00;4969262;28;19933;-85
2023/03/01 05:35:40;;;;;;;;;;;2.80;64.00;;;1.40;51.54;101804.56;4969382;28;19985;-87
2023/03/01 05:38:12;;;;;;;;;;;2.70;64.20;;;1.38;51.65;101815.19;4967994;28;19930;-88
2023/03/01 05:40:40;;;;;;;;;;;2.70;64.40;;;1.40;52.21;101800.13;4968330;28;20025;-87
2023/03/01 05:43:07;;;;;;;;;;;2.70;64.70;;;1.37;51.99;101804.81;4969094;28;20020;-91
2023/03/01 05:45:36;;;;;;;;;;;2.80;64.70;;;1.39;52.22;101803.72;4967256;28;19937;-89
2023/03/01 05:48:04;;;;;;;;;;;2.70;65.00;;;1.40;52.07;101815.91;4965872;28;19934;-86
2023/03/01 05:50:34;;;;;;;;;;;2.70;64.90;;;1.37;52.04;101810.91;4970026;28;19936;-89
2023/03/01 05:53:02;;;;;;;;;;;2.70;65.00;;;1.35;52.30;101818.03;4975896;28;19926;-86
2023/03/01 05:55:39;;;;;;;;;;;2.70;65.00;;;1.32;52.52;101822.69;4963480;28;20028;-86
2023/03/01 05:58:08;;;;;;;;;;;2.70;65.40;;;1.32;52.67;101806.94;4965384;28;19937;-84
2023/03/01 06:00:35;;;;;;;;;;;2.70;65.50;;;1.29;52.69;101819.38;4958824;28;19930;-84
2023/03/01 06:03:02;;;;;;;;;;;2.70;65.40;;;1.29;52.71;101813.28;4969065;28;19946;-83
2023/03/01 06:05:30;;;;;;;;;;;2.70;65.40;;;1.26;52.84;101809.06;4963142;28;20433;-84
2023/03/01 06:07:59;;;;;;;;;;;2.70;65.50;;;1.27;52.63;101800.25;4964456;28;19933;-84
2023/03/01 06:10:26;;;;;;;;;;;2.70;65.40;;;1.20;52.88;101806.09;4970922;28;19926;-83
2023/03/01 06:12:55;;;;;;;;;;;2.70;65.60;;;1.26;53.02;101808.25;4972941;28;20432;-83
2023/03/01 06:15:22;;;;;;;;;;;2.70;65.70;;;1.31;52.62;101800.00;4970449;28;19941;-84
2023/03/01 06:17:50;;;;;;;;;;;2.70;65.60;;;1.36;53.04;101809.19;4964290;28;20310;-84
2023/03/01 06:20:18;;;;;;;;;;;2.70;66.00;;;1.36;52.91;101797.84;4972332;28;20367;-84
2023/03/01 06:22:46;;;;;;;;;;;2.70;66.00;;;1.37;52.90;101800.38;4969800;28;19945;-83
2023/03/01 06:25:14;;;;;;;;;;;2.70;66.00;;;1.41;52.77;101803.59;4957667;28;20004;-84
2023/03/01 06:27:42;;;;;;;;;;;2.70;66.20;;;1.43;53.14;101802.53;4982600;28;20401;-84
2023/03/01 06:30:13;;;;;;;;;;;2.70;66.20;;;1.46;52.96;101801.44;4972102;28;19930;-83
2023/03/01 06:32:41;;;;;;;;;;;2.70;66.20;;;1.41;53.02;101800.97;4965410;28;19961;-84
2023/03/01 06:35:09;;;;;;;;;;;2.70;66.20;;;1.43;53.18;101805.16;4978373;28;20347;-84
2023/03/01 06:37:36;;;;;;;;;;;2.70;66.40;;;1.48;52.97;101796.91;4967657;28;19930;-82
2023/03/01 06:40:07;;;;;;;;;;;2.70;66.20;;;1.48;52.92;101800.38;4968212;28;19930;-83
2023/03/01 06:42:35;;;;;;;;;;;2.80;66.20;;;1.46;53.18;101793.56;4964391;28;19930;-83
2023/03/01 06:45:02;;;;;;;;;;;2.70;66.40;;;1.45;53.20;101800.59;4970537;28;19934;-84
2023/03/01 06:47:30;;;;;;;;;;;2.70;66.60;;;1.44;53.27;101796.31;4954387;28;20315;-84
2023/03/01 06:49:57;;;;;;;;;;;2.70;66.70;;;1.49;53.59;101804.69;4962985;28;19926;-84
2023/03/01 06:52:24;;;;;;;;;;;2.70;67.10;;;1.51;53.38;101801.91;4962740;28;19930;-84
2023/03/01 06:54:51;;;;;;;;;;;2.70;66.90;;;1.49;53.47;101802.06;4972464;28;19934;-84
2023/03/01 06:57:18;;;;;;;;;;;2.70;67.00;;;1.46;53.44;101797.03;4971899;28;19930;-83
2023/03/01 06:59:45;;;;;;;;;;;2.70;67.20;;;1.46;53.75;101799.66;4968552;28;19937;-84
2023/03/01 07:02:13;;;;;;;;;;;2.70;67.40;;;1.48;53.77;101797.75;4965714;28;19937;-84
2023/03/01 07:04:41;;;;;;;;;;;2.70;67.70;;;1.49;53.91;101794.16;4981550;28;19995;-84
2023/03/01 07:07:08;;;;;;;;;;;2.70;67.60;;;1.50;53.82;101801.09;4972005;28;20505;-84
2023/03/01 07:09:35;;;;;;;;;;;2.70;67.70;;;1.54;54.14;101799.91;4968756;28;19938;-83
2023/03/01 07:12:03;;;;;;;;;;;2.70;67.80;;;1.57;53.95;101795.38;4960387;28;19931;-84
2023/03/01 07:14:30;;;;;;;;;;;2.70;67.90;;;1.59;54.22;101799.53;4966086;28;19930;-84
2023/03/01 07:16:57;;;;;;;;;;;2.70;68.20;;;1.58;54.14;101791.78;4958936;28;19934;-84
2023/03/01 07:19:24;;;;;;;;;;;2.70;68.30;;;1.60;54.31;101785.44;4965127;28;19930;-84
2023/03/01 07:21:52;;;;;;;;;;;2.70;68.50;;;1.64;54.15;101783.41;4964762;28;20283;-85
2023/03/01 07:24:19;;;;;;;;;;;2.70;68.40;;;1.69;54.16;101789.13;4970946;28;19930;-84
2023/03/01 07:26:49;;;;;;;;;;;2.70;68.40;;;1.67;54.16;101784.00;4969531;28;19926;-84
2023/03/01 07:29:16;;;;;;;;;;;2.70;68.70;;;1.69;54.38;101773.38;4963940;28;19930;-84
2023/03/01 07:31:43;;;;;;;;;;;2.70;68.70;;;1.63;54.16;101769.44;4967217;28;20346;-84
2023/03/01 07:34:10;;;;;;;;;;;2.70;68.40;;;1.64;54.30;101770.25;4960344;28;19937;-84
2023/03/01 07:36:39;;;;;;;;;;;2.80;68.50;;;1.65;54.41;101767.50;4971131;28;19926;-84
2023/03/01 07:39:07;;;;;;;;;;;2.80;68.60;;;1.68;54.55;101779.59;4971121;28;19976;-83
2023/03/01 07:41:34;;;;;;;;;;;2.80;68.70;;;1.70;54.55;101767.13;4970265;28;19941;-84
2023/03/01 07:44:01;;;;;;;;;;;2.80;68.80;;;1.75;54.84;101776.34;4973038;28;19931;-84
2023/03/01 07:46:28;;;;;;;;;;;2.80;68.90;;;1.79;54.77;101776.94;4964350;28;19926;-84
2023/03/01 07:48:55;;;;;;;;;;;2.90;69.20;;;1.81;54.78;101772.41;4963726;28;19926;-84
2023/03/01 07:51:22;;;;;;;;;;;2.80;69.10;;;1.85;54.58;101775.59;4959692;28;20017;-84
2023/03/01 07:53:49;;;;;;;;;;;2.90;69.30;;;1.88;54.72;101773.56;4977786;28;19930;-83
2023/03/01 07:56:18;;;;;;;;;;;3.00;69.20;;;1.92;54.80;101776.81;4947031;28;19930;-84
2023/03/01 07:58:46;;;;;;;;;;;3.00;69.10;;;1.94;54.75;101780.97;4969883;28;19937;-84
2023/03/01 08:01:14;;;;;;;;;;;3.00;69.30;;;1.88;54.83;101778.00;4970592;28;20403;-84
2023/03/01 08:03:42;;;;;;;;;;;3.00;69.10;;;1.88;54.73;101783.25;4956458;28;20407;-84
2023/03/01 08:06:10;;;;;;;;;;;2.90;69.30;;;1.89;54.93;101783.13;4970353;28;19953;-84
2023/03/01 08:08:38;;;;;;;;;;;2.90;69.50;;;1.93;55.20;101779.31;4968839;28;19930;-84
2023/03/01 08:11:06;;;;;;;;;;;2.90;69.70;;;1.99;54.96;101786.69;4968715;28;19937;-84
2023/03/01 08:13:35;;;;;;;;;;;3.00;69.60;;;2.04;55.11;101787.16;4966474;28;19936;-84
2023/03/01 08:16:03;;;;;;;;;;;3.00;69.70;;;2.06;55.27;101787.06;4962380;28;19961;-83
2023/03/01 08:18:30;;;;;;;;;;;3.10;69.80;;;2.08;54.81;101779.88;4967321;28;19934;-84
2023/03/01 08:21:01;;;;;;;;;;;3.10;69.50;;;2.09;54.85;101773.63;4960459;28;20021;-84
2023/03/01 08:23:29;;;;;;;;;;;3.20;69.50;;;2.15;54.96;101780.19;4960307;28;20061;-83
2023/03/01 08:26:03;;;;;;;;;;;3.20;69.60;;;2.16;54.87;101782.72;4934923;29;19950;-83
2023/03/01 08:28:30;;;;;;;;;;;3.50;69.50;;;2.17;54.47;101780.94;4962693;28;19945;-83
2023/03/01 08:30:59;;;;;;;;;;;3.30;69.00;;;2.13;54.50;101782.13;4959060;28;19930;-83
2023/03/01 08:33:25;;;;;;;;;;;3.20;68.70;;;2.12;54.54;101780.47;4951958;28;19930;-84
2023/03/01 08:35:52;;;;;;;;;;;3.20;68.80;;;2.17;54.53;101778.28;4962655;28;19930;-83
2023/03/01 08:38:19;;;;;;;;;;;3.30;69.10;;;2.21;54.56;101779.72;4968368;28;19937;-83
2023/03/01 08:40:46;;;;;;;;;;;3.30;69.00;;;2.25;54.61;101765.34;4952464;28;19937;-82
2023/03/01 08:43:13;;;;;;;;;;;3.30;68.90;;;2.28;54.50;101767.72;4968072;28;20033;-84
2023/03/01 08:45:40;;;;;;;;;;;3.40;68.90;;;2.30;54.05;101765.81;4962466;28;20009;-83
2023/03/01 08:48:09;;;;;;;;;;;3.40;68.30;;;2.28;53.96;101765.09;4963500;28;19930;-83
2023/03/01 08:50:36;;;;;;;;;;;3.30;68.30;;;2.30;54.01;101764.03;4969763;28;19930;-83
2023/03/01 08:53:03;;;;;;;;;;;3.40;68.30;;;2.37;54.04;101760.88;4964976;28;20021;-83
2023/03/01 08:55:30;;;;;;;;;;;3.40;68.20;;;2.29;53.95;101759.72;4964652;28;20409;-83
2023/03/01 08:57:58;;;;;;;;;;;3.40;68.10;;;2.13;53.04;101750.56;4961619;28;19930;-83
2023/03/01 09:00:25;;;;;;;;;;;3.40;66.90;;;2.21;53.37;101753.41;4956780;28;19930;-83
2023/03/01 09:02:53;;;;;;;;;;;3.40;67.20;;;2.28;53.64;101750.13;4964934;28;20454;-83
2023/03/01 09:05:21;;;;;;;;;;;3.40;67.60;;;2.24;53.35;101750.50;4970189;28;19980;-83
2023/03/01 09:07:48;;;;;;;;;;;3.40;67.10;;;2.29;53.90;101750.97;4969079;28;20374;-82
2023/03/01 09:10:15;;;;;;;;;;;3.50;67.80;;;2.42;53.67;101749.00;4969802;28;19945;-83
2023/03/01 09:12:42;;;;;;;;;;;3.50;67.90;;;2.45;52.99;101755.81;4968174;28;19945;-83
2023/03/01 09:15:10;;;;;;;;;;;3.50;66.80;;;2.44;53.10;101749.72;4951685;28;19926;-83
2023/03/01 09:17:37;;;;;;;;;;;3.60;67.20;;;2.46;53.01;101742.53;4959403;28;19929;-83
2023/03/01 09:20:06;;;;;;;;;;;3.60;66.80;;;2.51;52.56;101742.16;4970484;28;20028;-83
2023/03/01 09:22:35;;;;;;;;;;;3.60;66.40;;;2.45;52.14;101742.66;4970714;28;19930;-83
2023/03/01 09:25:02;;;;;;;;;;;3.60;66.00;;;2.51;52.28;101742.97;4968265;28;19930;-83
2023/03/01 09:27:29;;;;;;;;;;;3.60;66.20;;;2.55;52.31;101747.03;4969070;28;20403;-83
2023/03/01 09:29:57;;;;;;;;;;;3.70;66.10;;;2.57;51.94;101731.94;4963436;28;19937;-82
2023/03/01 09:32:24;;;;;;;;;;;3.70;66.00;;;2.58;51.76;101736.22;4952796;28;19937;-83
2023/03/01 09:35:04;;;;;;;;;;;3.70;65.50;;;2.63;51.86;101732.38;4967458;28;19930;-82
2023/03/01 09:37:33;;;;;;;;;;;3.70;65.60;;;2.65;51.58;101723.41;4952052;28;19930;-83
2023/03/01 09:40:01;;;;;;;;;;;3.80;65.50;;;2.66;51.80;101717.16;4970783;28;19942;-83
2023/03/01 09:42:30;;;;;;;;;;;3.80;65.40;;;2.68;51.72;101717.03;4972574;28;20455;-83
2023/03/01 09:45:02;;;;;;;;;;;3.80;65.40;;;2.72;51.52;101711.38;4973961;28;19930;-83
2023/03/01 09:47:31;;;;;;;;;;;3.80;65.00;;;2.69;50.89;101709.00;5016564;23;19939;-75
2023/03/01 09:50:02;;;;;;;;;;;3.80;64.40;;;2.72;51.02;101718.44;5012456;28;19930;-75
2023/03/01 09:52:35;;;;;;;;;;;3.80;64.40;;;2.77;50.78;101711.00;4996223;28;19937;-75
2023/03/01 09:55:09;;;;;;;;;;;3.80;64.40;;;2.74;50.96;101725.25;5012858;28;19935;-75
2023/03/01 09:57:42;;;;;;;;;;;3.80;64.30;;;2.75;50.60;101720.84;4999170;28;19929;-75
2023/03/01 10:00:26;;;;;;;;;;;3.90;64.10;;;2.76;51.00;101714.59;4992777;28;19933;-75
2023/03/01 10:02:59;;;;;;;;;;;3.90;64.40;;;2.77;50.88;101729.44;5010914;28;19941;-75
2023/03/01 10:05:35;;;;;;;;;;;3.90;64.20;;;2.75;50.59;101707.66;5017461;28;19933;-75
2023/03/01 10:08:21;;;;;;;;;;;3.90;63.80;;;2.81;50.57;101725.56;5005944;28;20143;-74
2023/03/01 10:10:50;;;;;;;;;;;3.90;63.80;;;2.80;50.45;101719.47;5005137;28;19968;-75
2023/03/01 10:13:20;;;;;;;;;;;3.90;63.40;;;2.84;49.95;101705.09;5008516;28;19926;-74
2023/03/01 10:15:54;;;;;;;;;;;4.00;63.20;;;2.91;50.22;101702.75;5007450;28;19929;-76
2023/03/01 10:18:24;;;;;;;;;;;4.00;63.30;;;2.94;49.74;101709.56;5013154;28;19936;-76
2023/03/01 10:20:54;;;;;;;;;;;4.00;62.80;;;2.89;49.41;101707.31;5012288;28;19936;-76
2023/03/01 10:23:23;;;;;;;;;;;4.10;62.60;;;2.92;49.54;101696.50;5012837;28;20020;-76
2023/03/01 10:26:03;;;;;;;;;;;4.00;62.40;;;2.97;49.50;101696.13;5012799;28;20411;-76
2023/03/01 10:28:38;;;;;;;;;;;4.00;62.40;;;2.97;49.13;101689.03;5012675;28;19925;-76
2023/03/01 10:31:06;;;;;;;;;;;4.10;62.20;;;2.96;48.93;101700.56;5013486;28;20008;-76
2023/03/01 10:33:36;;;;;;;;;;;4.10;61.80;;;2.99;48.45;101695.03;5003235;28;19934;-76
2023/03/01 10:36:03;;;;;;;;;;;4.10;61.20;;;3.01;48.62;101687.81;4991360;28;20412;-76
2023/03/01 10:38:32;;;;;;;;;;;4.10;61.40;;;3.04;49.05;101686.72;4985613;28;19933;-76
2023/03/01 10:41:05;;;;;;;;;;;4.10;61.80;;;3.05;48.54;101683.13;4989014;28;19934;-76
2023/03/01 10:43:44;;;;;;;;;;;4.20;61.40;;;3.09;48.49;101687.16;5013148;28;19936;-76
2023/03/01 10:46:28;;;;;;;;;;;4.20;61.20;;;3.11;48.37;101669.41;4993516;28;20295;-76
2023/03/01 10:49:25;;;;;;;;;;;4.20;61.20;;;3.11;48.00;101669.41;5011986;28;19925;-76
2023/03/01 10:51:53;;;;;;;;;;;4.20;61.00;;;3.12;48.27;101663.16;4987731;28;19929;-76
2023/03/01 10:54:23;;;;;;;;;;;4.20;60.60;;;3.19;48.39;101661.69;4992810;28;19975;-76
2023/03/01 10:56:53;;;;;;;;;;;4.20;60.90;;;3.19;47.81;101645.03;5008469;28;20400;-76
2023/03/01 10:59:26;;;;;;;;;;;4.20;60.10;;;3.21;47.79;101641.28;5008861;28;20370;-76
2023/03/01 11:02:19;;;;;;;;;;;4.20;60.40;;;3.25;47.75;101644.50;5014117;28;19937;-76
2023/03/01 11:05:00;;;;;;;;;;;4.30;60.70;;;3.24;47.69;101638.38;4994630;28;19929;-76
2023/03/01 11:07:27;;;;;;;;;;;4.30;60.50;;;3.20;47.43;101644.06;5011868;28;19929;-76
2023/03/01 11:09:54;;;;;;;;;;;4.30;59.80;;;3.21;47.27;101632.53;5010652;28;19929;-76
2023/03/01 11:12:23;;;;;;;;;;;4.30;59.50;;;3.24;47.29;101627.00;5011110;28;20390;-76
2023/03/01 11:14:51;;;;;;;;;;;4.30;59.40;;;3.24;46.91;101622.56;4998278;28;19937;-76
2023/03/01 11:17:22;;;;;;;;;;;4.30;58.70;;;3.27;47.11;101619.69;4995019;28;20012;-76
2023/03/01 11:20:02;;;;;;;;;;;4.40;59.10;;;3.31;47.17;101612.31;5016231;28;19933;-76
2023/03/01 11:22:29;;;;;;;;;;;4.40;59.40;;;3.32;47.38;101617.47;4993758;28;20607;-76
2023/03/01 11:24:58;;;;;;;;;;;4.40;59.30;;;3.32;47.50;101606.09;5010338;28;19933;-76
2023/03/01 11:27:29;;;;;;;;;;;4.50;59.40;;;3.31;47.31;101609.66;5009891;28;19936;-76
2023/03/01 11:30:00;;;;;;;;;;;4.50;60.00;;;3.32;46.89;101622.75;5022310;28;19925;-76
2023/03/01 11:32:31;;;;;;;;;;;4.50;59.10;;;3.31;46.78;101605.22;4995841;28;20316;-76
2023/03/01 11:35:03;;;;;;;;;;;4.60;58.50;;;3.36;46.57;101603.03;5017844;28;20244;-76